sensor_id;sensor_type;location;lat;lon;timestamp;P1;durP1;ratioP1;P2;durP2;ratioP2
45328;SDS011;72636;48.160;11.428;2024-02-21T00:01:49;9.65;;;2.80;;
45328;SDS011;72636;48.160;11.428;2024-02-21T00:04:15;5.63;;;2.33;;
45328;SDS011;72636;48.160;11.428;2024-02-21T00:06:41;9.82;;;2.58;;
45328;SDS011;72636;48.160;11.428;2024-02-21T00:09:06;8.30;;;2.77;;
45328;SDS011;72636;48.160;11.428;2024-02-21T00:11:34;7.55;;;2.58;;
45328;SDS011;72636;48.160;11.428;2024-02-21T00:14:00;7.00;;;2.40;;
45328;SDS011;72636;48.160;11.428;2024-02-21T00:16:26;7.00;;;2.73;;
45328;SDS011;72636;48.160;11.428;2024-02-21T00:18:51;6.90;;;2.15;;
45328;SDS011;72636;48.160;11.428;2024-02-21T00:21:17;6.00;;;2.73;;
45328;SDS011;72636;48.160;11.428;2024-02-21T00:23:46;8.10;;;2.45;;
45328;SDS011;72636;48.160;11.428;2024-02-21T00:26:12;8.90;;;2.92;;
45328;SDS011;72636;48.160;11.428;2024-02-21T00:28:38;8.93;;;2.78;;
45328;SDS011;72636;48.160;11.428;2024-02-21T00:31:04;9.83;;;2.67;;
45328;SDS011;72636;48.160;11.428;2024-02-21T00:33:30;7.03;;;2.75;;
45328;SDS011;72636;48.160;11.428;2024-02-21T00:35:55;8.80;;;2.50;;
45328;SDS011;72636;48.160;11.428;2024-02-21T00:38:21;8.85;;;2.90;;
45328;SDS011;72636;48.160;11.428;2024-02-21T00:40:47;9.87;;;2.70;;
45328;SDS011;72636;48.160;11.428;2024-02-21T00:43:13;7.67;;;2.33;;
45328;SDS011;72636;48.160;11.428;2024-02-21T00:45:38;6.55;;;2.70;;
45328;SDS011;72636;48.160;11.428;2024-02-21T00:48:04;8.32;;;2.90;;
45328;SDS011;72636;48.160;11.428;2024-02-21T00:50:30;5.65;;;2.20;;
45328;SDS011;72636;48.160;11.428;2024-02-21T00:52:56;5.93;;;2.17;;
45328;SDS011;72636;48.160;11.428;2024-02-21T00:55:21;11.88;;;2.70;;
45328;SDS011;72636;48.160;11.428;2024-02-21T00:57:47;5.87;;;2.07;;
45328;SDS011;72636;48.160;11.428;2024-02-21T01:00:13;8.07;;;2.23;;
45328;SDS011;72636;48.160;11.428;2024-02-21T01:02:39;7.65;;;2.63;;
45328;SDS011;72636;48.160;11.428;2024-02-21T01:05:04;11.10;;;2.23;;
45328;SDS011;72636;48.160;11.428;2024-02-21T01:07:30;9.85;;;2.28;;
45328;SDS011;72636;48.160;11.428;2024-02-21T01:09:56;6.20;;;2.07;;
45328;SDS011;72636;48.160;11.428;2024-02-21T01:12:22;12.03;;;2.37;;
45328;SDS011;72636;48.160;11.428;2024-02-21T01:14:47;6.80;;;2.13;;
45328;SDS011;72636;48.160;11.428;2024-02-21T01:17:14;9.23;;;2.15;;
45328;SDS011;72636;48.160;11.428;2024-02-21T01:19:40;6.68;;;1.92;;
45328;SDS011;72636;48.160;11.428;2024-02-21T01:22:06;5.50;;;2.00;;
45328;SDS011;72636;48.160;11.428;2024-02-21T01:24:31;5.28;;;2.15;;
45328;SDS011;72636;48.160;11.428;2024-02-21T01:26:57;6.15;;;2.03;;
45328;SDS011;72636;48.160;11.428;2024-02-21T01:29:23;8.70;;;2.20;;
45328;SDS011;72636;48.160;11.428;2024-02-21T01:31:48;7.30;;;2.10;;
45328;SDS011;72636;48.160;11.428;2024-02-21T01:34:14;4.63;;;1.80;;
45328;SDS011;72636;48.160;11.428;2024-02-21T01:36:40;9.33;;;2.17;;
45328;SDS011;72636;48.160;11.428;2024-02-21T01:39:07;6.18;;;2.03;;
45328;SDS011;72636;48.160;11.428;2024-02-21T01:41:32;6.47;;;2.20;;
45328;SDS011;72636;48.160;11.428;2024-02-21T01:43:58;6.07;;;2.13;;
45328;SDS011;72636;48.160;11.428;2024-02-21T01:46:24;7.60;;;2.23;;
45328;SDS011;72636;48.160;11.428;2024-02-21T01:48:56;9.98;;;2.28;;
45328;SDS011;72636;48.160;11.428;2024-02-21T01:51:22;5.78;;;1.88;;
45328;SDS011;72636;48.160;11.428;2024-02-21T01:53:49;5.63;;;1.98;;
45328;SDS011;72636;48.160;11.428;2024-02-21T01:56:16;7.68;;;2.25;;
45328;SDS011;72636;48.160;11.428;2024-02-21T01:58:42;6.10;;;2.53;;
45328;SDS011;72636;48.160;11.428;2024-02-21T02:01:09;6.57;;;2.00;;
45328;SDS011;72636;48.160;11.428;2024-02-21T02:03:35;7.35;;;2.65;;
45328;SDS011;72636;48.160;11.428;2024-02-21T02:06:02;4.68;;;2.20;;
45328;SDS011;72636;48.160;11.428;2024-02-21T02:08:29;6.15;;;2.17;;
45328;SDS011;72636;48.160;11.428;2024-02-21T02:10:56;6.70;;;2.17;;
45328;SDS011;72636;48.160;11.428;2024-02-21T02:13:22;7.40;;;2.50;;
45328;SDS011;72636;48.160;11.428;2024-02-21T02:15:48;5.67;;;2.40;;
45328;SDS011;72636;48.160;11.428;2024-02-21T02:18:15;7.18;;;2.08;;
45328;SDS011;72636;48.160;11.428;2024-02-21T02:20:42;3.53;;;1.77;;
45328;SDS011;72636;48.160;11.428;2024-02-21T02:23:33;7.43;;;2.10;;
45328;SDS011;72636;48.160;11.428;2024-02-21T02:25:58;5.63;;;2.08;;
45328;SDS011;72636;48.160;11.428;2024-02-21T02:28:24;8.10;;;2.72;;
45328;SDS011;72636;48.160;11.428;2024-02-21T02:30:50;4.07;;;1.90;;
45328;SDS011;72636;48.160;11.428;2024-02-21T02:33:16;7.30;;;2.72;;
45328;SDS011;72636;48.160;11.428;2024-02-21T02:35:44;10.73;;;4.80;;
45328;SDS011;72636;48.160;11.428;2024-02-21T02:38:10;9.23;;;3.80;;
45328;SDS011;72636;48.160;11.428;2024-02-21T02:40:37;6.47;;;2.88;;
45328;SDS011;72636;48.160;11.428;2024-02-21T02:43:04;6.20;;;2.42;;
45328;SDS011;72636;48.160;11.428;2024-02-21T02:45:30;7.20;;;2.22;;
45328;SDS011;72636;48.160;11.428;2024-02-21T02:50:22;5.32;;;1.90;;
45328;SDS011;72636;48.160;11.428;2024-02-21T02:52:48;5.00;;;2.35;;
45328;SDS011;72636;48.160;11.428;2024-02-21T02:55:14;7.95;;;2.63;;
45328;SDS011;72636;48.160;11.428;2024-02-21T02:57:39;9.48;;;2.60;;
45328;SDS011;72636;48.160;11.428;2024-02-21T03:00:09;4.38;;;1.80;;
45328;SDS011;72636;48.160;11.428;2024-02-21T03:02:37;6.05;;;1.83;;
45328;SDS011;72636;48.160;11.428;2024-02-21T03:05:09;6.13;;;2.30;;
45328;SDS011;72636;48.160;11.428;2024-02-21T03:07:40;6.38;;;2.40;;
45328;SDS011;72636;48.160;11.428;2024-02-21T03:10:06;6.30;;;2.10;;
45328;SDS011;72636;48.160;11.428;2024-02-21T03:12:33;5.13;;;2.35;;
45328;SDS011;72636;48.160;11.428;2024-02-21T03:14:58;6.83;;;1.80;;
45328;SDS011;72636;48.160;11.428;2024-02-21T03:17:24;7.87;;;1.97;;
45328;SDS011;72636;48.160;11.428;2024-02-21T03:19:52;4.20;;;1.75;;
45328;SDS011;72636;48.160;11.428;2024-02-21T03:22:17;5.33;;;1.90;;
45328;SDS011;72636;48.160;11.428;2024-02-21T03:24:43;5.40;;;1.83;;
45328;SDS011;72636;48.160;11.428;2024-02-21T03:27:09;4.70;;;2.30;;
45328;SDS011;72636;48.160;11.428;2024-02-21T03:29:35;8.70;;;2.35;;
45328;SDS011;72636;48.160;11.428;2024-02-21T03:32:00;3.87;;;2.13;;
45328;SDS011;72636;48.160;11.428;2024-02-21T03:34:26;3.67;;;1.80;;
45328;SDS011;72636;48.160;11.428;2024-02-21T03:36:52;6.17;;;2.00;;
45328;SDS011;72636;48.160;11.428;2024-02-21T03:39:18;5.10;;;1.60;;
45328;SDS011;72636;48.160;11.428;2024-02-21T03:41:43;7.03;;;1.90;;
45328;SDS011;72636;48.160;11.428;2024-02-21T03:44:09;7.20;;;1.70;;
45328;SDS011;72636;48.160;11.428;2024-02-21T03:46:35;3.93;;;1.90;;
45328;SDS011;72636;48.160;11.428;2024-02-21T03:49:00;2.23;;;1.70;;
45328;SDS011;72636;48.160;11.428;2024-02-21T03:51:26;5.47;;;1.60;;
45328;SDS011;72636;48.160;11.428;2024-02-21T03:53:52;4.60;;;1.93;;
45328;SDS011;72636;48.160;11.428;2024-02-21T03:56:17;5.13;;;1.80;;
45328;SDS011;72636;48.160;11.428;2024-02-21T03:58:43;2.60;;;1.35;;
45328;SDS011;72636;48.160;11.428;2024-02-21T04:01:09;5.67;;;1.70;;
45328;SDS011;72636;48.160;11.428;2024-02-21T04:03:34;4.53;;;1.67;;
45328;SDS011;72636;48.160;11.428;2024-02-21T04:06:00;4.03;;;1.70;;
45328;SDS011;72636;48.160;11.428;2024-02-21T04:08:26;5.20;;;1.80;;
45328;SDS011;72636;48.160;11.428;2024-02-21T04:10:51;8.00;;;2.42;;
45328;SDS011;72636;48.160;11.428;2024-02-21T04:13:17;10.20;;;2.57;;
45328;SDS011;72636;48.160;11.428;2024-02-21T04:15:43;5.80;;;2.17;;
45328;SDS011;72636;48.160;11.428;2024-02-21T04:18:08;6.27;;;2.23;;
45328;SDS011;72636;48.160;11.428;2024-02-21T04:20:34;4.80;;;2.03;;
45328;SDS011;72636;48.160;11.428;2024-02-21T04:23:00;6.95;;;2.15;;
45328;SDS011;72636;48.160;11.428;2024-02-21T04:25:26;5.05;;;1.95;;
45328;SDS011;72636;48.160;11.428;2024-02-21T04:27:52;4.03;;;1.93;;
45328;SDS011;72636;48.160;11.428;2024-02-21T04:30:17;7.07;;;2.40;;
45328;SDS011;72636;48.160;11.428;2024-02-21T04:32:43;4.47;;;2.20;;
45328;SDS011;72636;48.160;11.428;2024-02-21T04:35:09;5.13;;;1.80;;
45328;SDS011;72636;48.160;11.428;2024-02-21T04:37:34;6.55;;;2.08;;
45328;SDS011;72636;48.160;11.428;2024-02-21T04:40:00;8.67;;;2.23;;
45328;SDS011;72636;48.160;11.428;2024-02-21T04:42:26;5.00;;;1.63;;
45328;SDS011;72636;48.160;11.428;2024-02-21T04:44:51;2.63;;;1.60;;
45328;SDS011;72636;48.160;11.428;2024-02-21T04:47:18;5.78;;;1.88;;
45328;SDS011;72636;48.160;11.428;2024-02-21T04:52:11;2.80;;;1.58;;
45328;SDS011;72636;48.160;11.428;2024-02-21T04:54:36;5.90;;;1.63;;
45328;SDS011;72636;48.160;11.428;2024-02-21T04:57:02;3.60;;;1.50;;
45328;SDS011;72636;48.160;11.428;2024-02-21T04:59:28;3.88;;;1.50;;
45328;SDS011;72636;48.160;11.428;2024-02-21T05:01:54;7.10;;;1.80;;
45328;SDS011;72636;48.160;11.428;2024-02-21T05:04:20;3.50;;;1.40;;
45328;SDS011;72636;48.160;11.428;2024-02-21T05:06:46;2.80;;;1.33;;
45328;SDS011;72636;48.160;11.428;2024-02-21T05:09:11;4.10;;;1.37;;
45328;SDS011;72636;48.160;11.428;2024-02-21T05:11:37;4.72;;;1.92;;
45328;SDS011;72636;48.160;11.428;2024-02-21T05:14:04;4.93;;;2.05;;
45328;SDS011;72636;48.160;11.428;2024-02-21T05:16:30;2.60;;;1.50;;
45328;SDS011;72636;48.160;11.428;2024-02-21T05:18:56;2.10;;;1.30;;
45328;SDS011;72636;48.160;11.428;2024-02-21T05:21:22;3.35;;;1.30;;
45328;SDS011;72636;48.160;11.428;2024-02-21T05:23:53;3.92;;;1.20;;
45328;SDS011;72636;48.160;11.428;2024-02-21T05:26:22;5.78;;;1.00;;
45328;SDS011;72636;48.160;11.428;2024-02-21T05:28:49;2.70;;;1.38;;
45328;SDS011;72636;48.160;11.428;2024-02-21T05:31:15;2.97;;;1.27;;
45328;SDS011;72636;48.160;11.428;2024-02-21T05:33:42;2.20;;;1.17;;
45328;SDS011;72636;48.160;11.428;2024-02-21T05:36:08;4.97;;;1.42;;
45328;SDS011;72636;48.160;11.428;2024-02-21T05:38:34;3.53;;;1.83;;
45328;SDS011;72636;48.160;11.428;2024-02-21T05:41:00;1.85;;;1.08;;
45328;SDS011;72636;48.160;11.428;2024-02-21T05:43:26;3.55;;;1.33;;
45328;SDS011;72636;48.160;11.428;2024-02-21T05:45:51;3.63;;;1.17;;
45328;SDS011;72636;48.160;11.428;2024-02-21T05:48:17;6.10;;;1.40;;
45328;SDS011;72636;48.160;11.428;2024-02-21T05:50:43;3.23;;;1.30;;
45328;SDS011;72636;48.160;11.428;2024-02-21T05:53:08;3.80;;;1.33;;
45328;SDS011;72636;48.160;11.428;2024-02-21T05:58:01;2.13;;;1.10;;
45328;SDS011;72636;48.160;11.428;2024-02-21T06:00:28;2.83;;;1.20;;
45328;SDS011;72636;48.160;11.428;2024-02-21T06:02:54;1.67;;;1.00;;
45328;SDS011;72636;48.160;11.428;2024-02-21T06:05:20;3.57;;;1.00;;
45328;SDS011;72636;48.160;11.428;2024-02-21T06:07:46;3.23;;;1.10;;
45328;SDS011;72636;48.160;11.428;2024-02-21T06:10:11;1.77;;;1.00;;
45328;SDS011;72636;48.160;11.428;2024-02-21T06:12:37;2.13;;;1.40;;
45328;SDS011;72636;48.160;11.428;2024-02-21T06:15:03;2.47;;;1.50;;
45328;SDS011;72636;48.160;11.428;2024-02-21T06:17:29;3.72;;;1.30;;
45328;SDS011;72636;48.160;11.428;2024-02-21T06:19:54;2.30;;;1.30;;
45328;SDS011;72636;48.160;11.428;2024-02-21T06:22:20;6.67;;;2.03;;
45328;SDS011;72636;48.160;11.428;2024-02-21T06:24:45;3.40;;;1.50;;
45328;SDS011;72636;48.160;11.428;2024-02-21T06:27:11;2.20;;;1.20;;
45328;SDS011;72636;48.160;11.428;2024-02-21T06:29:37;1.77;;;1.20;;
45328;SDS011;72636;48.160;11.428;2024-02-21T06:32:03;4.45;;;2.13;;
45328;SDS011;72636;48.160;11.428;2024-02-21T06:34:29;3.67;;;1.63;;
45328;SDS011;72636;48.160;11.428;2024-02-21T06:36:54;2.87;;;1.67;;
45328;SDS011;72636;48.160;11.428;2024-02-21T06:39:20;2.53;;;1.47;;
45328;SDS011;72636;48.160;11.428;2024-02-21T06:41:48;2.55;;;1.33;;
45328;SDS011;72636;48.160;11.428;2024-02-21T06:44:15;5.95;;;1.30;;
45328;SDS011;72636;48.160;11.428;2024-02-21T06:46:42;3.63;;;1.40;;
45328;SDS011;72636;48.160;11.428;2024-02-21T06:49:08;4.15;;;1.73;;
45328;SDS011;72636;48.160;11.428;2024-02-21T06:51:34;3.28;;;1.30;;
45328;SDS011;72636;48.160;11.428;2024-02-21T06:54:00;6.20;;;1.58;;
45328;SDS011;72636;48.160;11.428;2024-02-21T06:56:25;3.77;;;1.40;;
45328;SDS011;72636;48.160;11.428;2024-02-21T06:58:57;1.95;;;1.10;;
45328;SDS011;72636;48.160;11.428;2024-02-21T07:01:23;3.80;;;1.52;;
45328;SDS011;72636;48.160;11.428;2024-02-21T07:03:49;4.72;;;1.33;;
45328;SDS011;72636;48.160;11.428;2024-02-21T07:06:15;5.05;;;1.30;;
45328;SDS011;72636;48.160;11.428;2024-02-21T07:08:40;1.43;;;1.07;;
45328;SDS011;72636;48.160;11.428;2024-02-21T07:11:06;1.90;;;1.00;;
45328;SDS011;72636;48.160;11.428;2024-02-21T07:13:32;1.83;;;1.20;;
45328;SDS011;72636;48.160;11.428;2024-02-21T07:15:58;5.03;;;1.15;;
45328;SDS011;72636;48.160;11.428;2024-02-21T07:18:23;3.63;;;1.20;;
45328;SDS011;72636;48.160;11.428;2024-02-21T07:20:50;4.57;;;1.27;;
45328;SDS011;72636;48.160;11.428;2024-02-21T07:23:17;5.25;;;1.40;;
45328;SDS011;72636;48.160;11.428;2024-02-21T07:25:43;5.68;;;1.17;;
45328;SDS011;72636;48.160;11.428;2024-02-21T07:28:08;2.07;;;1.00;;
45328;SDS011;72636;48.160;11.428;2024-02-21T07:30:34;4.93;;;1.20;;
45328;SDS011;72636;48.160;11.428;2024-02-21T07:33:00;3.38;;;1.38;;
45328;SDS011;72636;48.160;11.428;2024-02-21T07:35:26;1.47;;;0.97;;
45328;SDS011;72636;48.160;11.428;2024-02-21T07:37:51;3.33;;;1.20;;
45328;SDS011;72636;48.160;11.428;2024-02-21T07:40:17;2.23;;;1.30;;
45328;SDS011;72636;48.160;11.428;2024-02-21T07:42:43;2.45;;;1.10;;
45328;SDS011;72636;48.160;11.428;2024-02-21T07:45:09;2.97;;;1.23;;
45328;SDS011;72636;48.160;11.428;2024-02-21T07:47:35;3.25;;;1.58;;
45328;SDS011;72636;48.160;11.428;2024-02-21T07:50:02;2.20;;;1.20;;
45328;SDS011;72636;48.160;11.428;2024-02-21T07:52:29;5.30;;;1.20;;
45328;SDS011;72636;48.160;11.428;2024-02-21T07:54:54;3.42;;;1.05;;
45328;SDS011;72636;48.160;11.428;2024-02-21T07:57:20;3.75;;;1.05;;
45328;SDS011;72636;48.160;11.428;2024-02-21T07:59:47;10.20;;;1.15;;
45328;SDS011;72636;48.160;11.428;2024-02-21T08:02:13;3.17;;;1.23;;
45328;SDS011;72636;48.160;11.428;2024-02-21T08:04:39;1.55;;;0.90;;
45328;SDS011;72636;48.160;11.428;2024-02-21T08:07:05;3.88;;;1.00;;
45328;SDS011;72636;48.160;11.428;2024-02-21T08:09:30;1.40;;;0.80;;
45328;SDS011;72636;48.160;11.428;2024-02-21T08:11:56;2.83;;;1.00;;
45328;SDS011;72636;48.160;11.428;2024-02-21T08:14:22;1.45;;;1.05;;
45328;SDS011;72636;48.160;11.428;2024-02-21T08:16:49;2.58;;;0.80;;
45328;SDS011;72636;48.160;11.428;2024-02-21T08:19:15;1.25;;;1.00;;
45328;SDS011;72636;48.160;11.428;2024-02-21T08:21:42;1.35;;;0.85;;
45328;SDS011;72636;48.160;11.428;2024-02-21T08:24:07;3.43;;;0.90;;
45328;SDS011;72636;48.160;11.428;2024-02-21T08:26:33;1.40;;;0.90;;
45328;SDS011;72636;48.160;11.428;2024-02-21T08:28:59;2.15;;;0.65;;
45328;SDS011;72636;48.160;11.428;2024-02-21T08:31:25;1.85;;;0.98;;
45328;SDS011;72636;48.160;11.428;2024-02-21T08:33:59;1.17;;;0.70;;
45328;SDS011;72636;48.160;11.428;2024-02-21T08:36:31;1.30;;;0.80;;
45328;SDS011;72636;48.160;11.428;2024-02-21T08:38:57;2.65;;;0.80;;
45328;SDS011;72636;48.160;11.428;2024-02-21T08:41:23;1.63;;;0.97;;
45328;SDS011;72636;48.160;11.428;2024-02-21T08:43:53;0.98;;;0.77;;
45328;SDS011;72636;48.160;11.428;2024-02-21T08:46:19;2.10;;;1.00;;
45328;SDS011;72636;48.160;11.428;2024-02-21T08:48:46;7.22;;;1.35;;
45328;SDS011;72636;48.160;11.428;2024-02-21T08:51:12;4.70;;;1.10;;
45328;SDS011;72636;48.160;11.428;2024-02-21T08:53:38;2.33;;;0.95;;
45328;SDS011;72636;48.160;11.428;2024-02-21T08:56:04;2.67;;;0.90;;
45328;SDS011;72636;48.160;11.428;2024-02-21T08:58:31;3.90;;;1.92;;
45328;SDS011;72636;48.160;11.428;2024-02-21T09:00:56;2.73;;;0.90;;
45328;SDS011;72636;48.160;11.428;2024-02-21T09:03:22;3.20;;;1.10;;
45328;SDS011;72636;48.160;11.428;2024-02-21T09:05:48;2.58;;;0.73;;
45328;SDS011;72636;48.160;11.428;2024-02-21T09:08:14;1.30;;;0.82;;
45328;SDS011;72636;48.160;11.428;2024-02-21T09:10:39;1.53;;;0.80;;
45328;SDS011;72636;48.160;11.428;2024-02-21T09:13:05;1.70;;;0.80;;
45328;SDS011;72636;48.160;11.428;2024-02-21T09:15:33;1.10;;;0.63;;
45328;SDS011;72636;48.160;11.428;2024-02-21T09:17:58;0.75;;;0.60;;
45328;SDS011;72636;48.160;11.428;2024-02-21T09:20:24;2.30;;;0.70;;
45328;SDS011;72636;48.160;11.428;2024-02-21T09:22:50;3.28;;;0.88;;
45328;SDS011;72636;48.160;11.428;2024-02-21T09:25:17;3.20;;;0.90;;
45328;SDS011;72636;48.160;11.428;2024-02-21T09:27:43;1.90;;;0.85;;
45328;SDS011;72636;48.160;11.428;2024-02-21T09:30:10;1.00;;;0.82;;
45328;SDS011;72636;48.160;11.428;2024-02-21T09:32:36;3.05;;;1.08;;
45328;SDS011;72636;48.160;11.428;2024-02-21T09:35:02;1.80;;;0.80;;
45328;SDS011;72636;48.160;11.428;2024-02-21T09:37:30;2.83;;;0.65;;
45328;SDS011;72636;48.160;11.428;2024-02-21T09:39:56;1.50;;;0.80;;
45328;SDS011;72636;48.160;11.428;2024-02-21T09:42:22;3.28;;;0.80;;
45328;SDS011;72636;48.160;11.428;2024-02-21T09:45:07;4.68;;;0.80;;
45328;SDS011;72636;48.160;11.428;2024-02-21T09:47:51;1.13;;;0.80;;
45328;SDS011;72636;48.160;11.428;2024-02-21T09:50:36;3.28;;;0.80;;
45328;SDS011;72636;48.160;11.428;2024-02-21T09:53:05;1.15;;;0.82;;
45328;SDS011;72636;48.160;11.428;2024-02-21T09:58:05;2.30;;;0.90;;
45328;SDS011;72636;48.160;11.428;2024-02-21T10:00:30;3.13;;;0.90;;
45328;SDS011;72636;48.160;11.428;2024-02-21T10:02:56;2.20;;;0.80;;
45328;SDS011;72636;48.160;11.428;2024-02-21T10:05:23;3.78;;;0.90;;
45328;SDS011;72636;48.160;11.428;2024-02-21T10:07:51;3.97;;;0.70;;
45328;SDS011;72636;48.160;11.428;2024-02-21T10:10:16;1.02;;;0.52;;
45328;SDS011;72636;48.160;11.428;2024-02-21T10:12:52;1.88;;;0.57;;
45328;SDS011;72636;48.160;11.428;2024-02-21T10:15:23;2.00;;;0.70;;
45328;SDS011;72636;48.160;11.428;2024-02-21T10:17:59;2.00;;;0.65;;
45328;SDS011;72636;48.160;11.428;2024-02-21T10:20:26;1.38;;;0.43;;
45328;SDS011;72636;48.160;11.428;2024-02-21T10:23:02;1.27;;;0.40;;
45328;SDS011;72636;48.160;11.428;2024-02-21T10:25:32;0.77;;;0.50;;
45328;SDS011;72636;48.160;11.428;2024-02-21T10:27:59;1.55;;;0.70;;
45328;SDS011;72636;48.160;11.428;2024-02-21T10:30:24;5.00;;;0.60;;
45328;SDS011;72636;48.160;11.428;2024-02-21T10:32:50;0.77;;;0.70;;
45328;SDS011;72636;48.160;11.428;2024-02-21T10:35:29;1.95;;;0.50;;
45328;SDS011;72636;48.160;11.428;2024-02-21T10:37:56;1.58;;;0.50;;
45328;SDS011;72636;48.160;11.428;2024-02-21T10:40:25;0.50;;;0.47;;
45328;SDS011;72636;48.160;11.428;2024-02-21T10:42:58;3.08;;;0.63;;
45328;SDS011;72636;48.160;11.428;2024-02-21T10:45:33;1.40;;;0.65;;
45328;SDS011;72636;48.160;11.428;2024-02-21T10:48:08;0.68;;;0.43;;
45328;SDS011;72636;48.160;11.428;2024-02-21T10:51:24;1.35;;;0.50;;
45328;SDS011;72636;48.160;11.428;2024-02-21T10:56:26;3.10;;;0.57;;
45328;SDS011;72636;48.160;11.428;2024-02-21T10:58:55;3.05;;;0.70;;
45328;SDS011;72636;48.160;11.428;2024-02-21T11:01:25;7.30;;;0.75;;
45328;SDS011;72636;48.160;11.428;2024-02-21T11:03:54;1.25;;;0.52;;
45328;SDS011;72636;48.160;11.428;2024-02-21T11:06:22;1.25;;;0.55;;
45328;SDS011;72636;48.160;11.428;2024-02-21T11:08:58;1.23;;;0.52;;
45328;SDS011;72636;48.160;11.428;2024-02-21T11:11:34;1.88;;;0.70;;
45328;SDS011;72636;48.160;11.428;2024-02-21T11:14:18;1.67;;;0.80;;
45328;SDS011;72636;48.160;11.428;2024-02-21T11:16:47;3.20;;;0.77;;
45328;SDS011;72636;48.160;11.428;2024-02-21T11:19:19;1.90;;;0.70;;
45328;SDS011;72636;48.160;11.428;2024-02-21T11:21:46;2.63;;;0.63;;
45328;SDS011;72636;48.160;11.428;2024-02-21T11:24:13;2.97;;;0.80;;
45328;SDS011;72636;48.160;11.428;2024-02-21T11:26:39;0.77;;;0.47;;
45328;SDS011;72636;48.160;11.428;2024-02-21T11:29:07;0.55;;;0.40;;
45328;SDS011;72636;48.160;11.428;2024-02-21T11:31:41;1.80;;;0.70;;
45328;SDS011;72636;48.160;11.428;2024-02-21T11:34:12;2.30;;;0.50;;
45328;SDS011;72636;48.160;11.428;2024-02-21T11:36:47;1.92;;;0.35;;
45328;SDS011;72636;48.160;11.428;2024-02-21T11:39:24;0.93;;;0.43;;
45328;SDS011;72636;48.160;11.428;2024-02-21T11:42:03;3.40;;;0.50;;
45328;SDS011;72636;48.160;11.428;2024-02-21T11:44:30;1.60;;;0.40;;
45328;SDS011;72636;48.160;11.428;2024-02-21T11:46:57;0.65;;;0.40;;
45328;SDS011;72636;48.160;11.428;2024-02-21T11:51:58;0.60;;;0.60;;
45328;SDS011;72636;48.160;11.428;2024-02-21T11:54:25;1.75;;;0.88;;
45328;SDS011;72636;48.160;11.428;2024-02-21T11:56:52;0.93;;;0.60;;
45328;SDS011;72636;48.160;11.428;2024-02-21T11:59:17;0.60;;;0.60;;
45328;SDS011;72636;48.160;11.428;2024-02-21T12:01:43;0.40;;;0.40;;
45328;SDS011;72636;48.160;11.428;2024-02-21T12:04:09;0.97;;;0.37;;
45328;SDS011;72636;48.160;11.428;2024-02-21T12:06:35;1.67;;;0.40;;
45328;SDS011;72636;48.160;11.428;2024-02-21T12:09:00;0.68;;;0.30;;
45328;SDS011;72636;48.160;11.428;2024-02-21T12:11:26;1.00;;;0.30;;
45328;SDS011;72636;48.160;11.428;2024-02-21T12:14:01;0.63;;;0.50;;
45328;SDS011;72636;48.160;11.428;2024-02-21T12:16:29;0.35;;;0.32;;
45328;SDS011;72636;48.160;11.428;2024-02-21T12:18:55;1.80;;;0.65;;
45328;SDS011;72636;48.160;11.428;2024-02-21T12:21:29;0.65;;;0.30;;
45328;SDS011;72636;48.160;11.428;2024-02-21T12:23:57;0.45;;;0.30;;
45328;SDS011;72636;48.160;11.428;2024-02-21T12:28:50;0.80;;;0.45;;
45328;SDS011;72636;48.160;11.428;2024-02-21T12:31:16;1.50;;;0.60;;
45328;SDS011;72636;48.160;11.428;2024-02-21T12:33:44;1.25;;;0.50;;
45328;SDS011;72636;48.160;11.428;2024-02-21T12:36:10;0.60;;;0.30;;
45328;SDS011;72636;48.160;11.428;2024-02-21T12:38:36;2.00;;;0.40;;
45328;SDS011;72636;48.160;11.428;2024-02-21T12:41:02;0.30;;;0.30;;
45328;SDS011;72636;48.160;11.428;2024-02-21T12:45:54;0.63;;;0.40;;
45328;SDS011;72636;48.160;11.428;2024-02-21T12:48:19;0.68;;;0.30;;
45328;SDS011;72636;48.160;11.428;2024-02-21T12:50:49;0.70;;;0.50;;
45328;SDS011;72636;48.160;11.428;2024-02-21T12:53:18;0.60;;;0.50;;
45328;SDS011;72636;48.160;11.428;2024-02-21T12:55:46;0.60;;;0.30;;
45328;SDS011;72636;48.160;11.428;2024-02-21T12:58:13;1.17;;;0.43;;
45328;SDS011;72636;48.160;11.428;2024-02-21T13:00:39;0.68;;;0.40;;
45328;SDS011;72636;48.160;11.428;2024-02-21T13:03:05;3.78;;;1.02;;
45328;SDS011;72636;48.160;11.428;2024-02-21T13:05:31;1.25;;;0.60;;
45328;SDS011;72636;48.160;11.428;2024-02-21T13:07:57;2.08;;;0.50;;
45328;SDS011;72636;48.160;11.428;2024-02-21T13:10:23;1.02;;;0.50;;
45328;SDS011;72636;48.160;11.428;2024-02-21T13:12:49;0.77;;;0.50;;
45328;SDS011;72636;48.160;11.428;2024-02-21T13:15:15;1.08;;;0.40;;
45328;SDS011;72636;48.160;11.428;2024-02-21T13:17:43;1.30;;;0.50;;
45328;SDS011;72636;48.160;11.428;2024-02-21T13:20:09;1.90;;;0.50;;
45328;SDS011;72636;48.160;11.428;2024-02-21T13:22:36;1.75;;;0.52;;
45328;SDS011;72636;48.160;11.428;2024-02-21T13:25:02;1.77;;;0.50;;
45328;SDS011;72636;48.160;11.428;2024-02-21T13:27:28;2.88;;;0.50;;
45328;SDS011;72636;48.160;11.428;2024-02-21T13:29:53;2.55;;;0.50;;
45328;SDS011;72636;48.160;11.428;2024-02-21T13:32:19;1.23;;;0.85;;
45328;SDS011;72636;48.160;11.428;2024-02-21T13:34:45;0.95;;;0.40;;
45328;SDS011;72636;48.160;11.428;2024-02-21T13:37:10;0.90;;;0.47;;
45328;SDS011;72636;48.160;11.428;2024-02-21T13:39:36;0.77;;;0.70;;
45328;SDS011;72636;48.160;11.428;2024-02-21T13:42:02;0.85;;;0.47;;
45328;SDS011;72636;48.160;11.428;2024-02-21T13:44:30;2.80;;;0.70;;
45328;SDS011;72636;48.160;11.428;2024-02-21T13:46:57;0.43;;;0.40;;
45328;SDS011;72636;48.160;11.428;2024-02-21T13:49:22;2.08;;;0.70;;
45328;SDS011;72636;48.160;11.428;2024-02-21T13:51:48;0.80;;;0.60;;
45328;SDS011;72636;48.160;11.428;2024-02-21T13:54:14;1.40;;;0.63;;
45328;SDS011;72636;48.160;11.428;2024-02-21T13:56:42;0.75;;;0.60;;
45328;SDS011;72636;48.160;11.428;2024-02-21T13:59:08;0.68;;;0.35;;
45328;SDS011;72636;48.160;11.428;2024-02-21T14:01:33;1.50;;;0.50;;
45328;SDS011;72636;48.160;11.428;2024-02-21T14:04:00;1.75;;;0.38;;
45328;SDS011;72636;48.160;11.428;2024-02-21T14:06:26;0.80;;;0.60;;
45328;SDS011;72636;48.160;11.428;2024-02-21T14:08:52;0.40;;;0.40;;
45328;SDS011;72636;48.160;11.428;2024-02-21T14:11:18;2.80;;;0.82;;
45328;SDS011;72636;48.160;11.428;2024-02-21T14:13:44;5.45;;;0.95;;
45328;SDS011;72636;48.160;11.428;2024-02-21T14:16:10;5.00;;;0.68;;
45328;SDS011;72636;48.160;11.428;2024-02-21T14:18:41;4.40;;;0.77;;
45328;SDS011;72636;48.160;11.428;2024-02-21T14:21:07;0.88;;;0.68;;
45328;SDS011;72636;48.160;11.428;2024-02-21T14:23:35;0.93;;;0.57;;
45328;SDS011;72636;48.160;11.428;2024-02-21T14:26:02;0.50;;;0.50;;
45328;SDS011;72636;48.160;11.428;2024-02-21T14:28:29;0.80;;;0.55;;
45328;SDS011;72636;48.160;11.428;2024-02-21T14:30:55;1.67;;;0.60;;
45328;SDS011;72636;48.160;11.428;2024-02-21T14:33:25;1.25;;;0.60;;
45328;SDS011;72636;48.160;11.428;2024-02-21T14:35:54;2.88;;;0.50;;
45328;SDS011;72636;48.160;11.428;2024-02-21T14:38:20;2.35;;;0.70;;
45328;SDS011;72636;48.160;11.428;2024-02-21T14:40:46;1.60;;;0.60;;
45328;SDS011;72636;48.160;11.428;2024-02-21T14:43:11;1.48;;;0.70;;
45328;SDS011;72636;48.160;11.428;2024-02-21T14:45:37;1.20;;;0.40;;
45328;SDS011;72636;48.160;11.428;2024-02-21T14:50:29;1.30;;;0.40;;
45328;SDS011;72636;48.160;11.428;2024-02-21T14:52:55;1.60;;;0.57;;
45328;SDS011;72636;48.160;11.428;2024-02-21T14:55:20;1.50;;;0.80;;